createdAt,value
2019-03-24T00:01:05.652Z,38.60
2019-03-24T00:03:37.597Z,39.47
2019-03-24T00:06:11.714Z,39.40
2019-03-24T00:08:44.768Z,39.87
2019-03-24T00:11:17.961Z,38.40
2019-03-24T00:13:51.867Z,38.77
2019-03-24T00:16:23.800Z,37.87
2019-03-24T00:18:55.899Z,40.37
2019-03-24T00:21:29.958Z,39.37
2019-03-24T00:24:01.913Z,38.50
2019-03-24T00:26:33.885Z,37.80
2019-03-24T00:29:07.938Z,36.20
2019-03-24T00:31:40.970Z,38.00
2019-03-24T00:34:15.725Z,36.43
2019-03-24T00:36:49.020Z,36.13
2019-03-24T00:39:21.973Z,37.57
2019-03-24T00:41:55.903Z,37.53
2019-03-24T00:44:28.685Z,35.60
2019-03-24T00:47:01.031Z,37.53
2019-03-24T00:49:33.828Z,35.90
2019-03-24T00:52:06.883Z,38.97
2019-03-24T00:54:40.051Z,37.67
2019-03-24T00:57:13.993Z,36.37
2019-03-24T00:59:46.099Z,36.50
2019-03-24T01:02:21.820Z,36.60
2019-03-24T01:04:54.931Z,35.90
2019-03-24T01:07:29.479Z,37.57
2019-03-24T01:10:02.106Z,36.57
2019-03-24T01:12:35.021Z,35.10
2019-03-24T01:15:09.357Z,39.03
2019-03-24T01:17:43.352Z,36.57
2019-03-24T01:20:16.955Z,35.80
2019-03-24T01:22:51.139Z,34.77
2019-03-24T01:25:24.095Z,35.73
2019-03-24T01:27:56.260Z,38.60
2019-03-24T01:30:31.819Z,35.87
2019-03-24T01:33:04.552Z,37.30
2019-03-24T01:35:37.191Z,37.40
2019-03-24T01:38:11.245Z,37.40
2019-03-24T01:40:44.923Z,35.57
2019-03-24T01:43:18.199Z,35.65
2019-03-24T01:45:58.525Z,36.67
2019-03-24T01:48:28.281Z,35.47
2019-03-24T01:51:02.198Z,39.33
2019-03-24T01:53:36.271Z,37.07
2019-03-24T01:56:09.147Z,35.10
2019-03-24T01:58:43.255Z,36.70
2019-03-24T02:01:15.331Z,36.37
2019-03-24T02:03:47.219Z,35.27
2019-03-24T02:06:21.086Z,35.40
2019-03-24T02:08:54.429Z,34.33
2019-03-24T02:11:29.870Z,36.17
2019-03-24T02:14:03.349Z,33.80
2019-03-24T02:16:36.396Z,34.57
2019-03-24T02:19:08.817Z,36.47
2019-03-24T02:21:42.187Z,36.60
2019-03-24T02:24:14.595Z,34.57
2019-03-24T02:26:48.486Z,34.10
2019-03-24T02:29:21.319Z,35.43
2019-03-24T02:31:54.257Z,35.77
2019-03-24T02:34:27.261Z,37.60
2019-03-24T02:37:00.437Z,37.17
2019-03-24T02:39:34.428Z,35.50
2019-03-24T02:42:08.411Z,36.90
2019-03-24T02:44:43.039Z,36.10
2019-03-24T02:47:16.026Z,34.60
2019-03-24T02:49:48.992Z,35.57
2019-03-24T02:52:22.565Z,34.93
2019-03-24T02:54:55.418Z,36.97
2019-03-24T02:57:30.043Z,35.98
2019-03-24T03:00:02.603Z,37.60
2019-03-24T03:02:36.541Z,36.70
2019-03-24T03:05:11.037Z,36.83
2019-03-24T03:07:43.619Z,38.07
2019-03-24T03:10:16.282Z,34.70
2019-03-24T03:12:50.965Z,34.40
2019-03-24T03:15:24.765Z,34.80
2019-03-24T03:18:00.078Z,35.40
2019-03-24T03:20:33.680Z,36.17
2019-03-24T03:23:05.750Z,35.57
2019-03-24T03:25:37.733Z,37.00
2019-03-24T03:28:10.832Z,35.60
2019-03-24T03:30:43.975Z,35.67
2019-03-24T03:33:17.771Z,37.10
2019-03-24T03:35:50.810Z,37.37
2019-03-24T03:38:22.653Z,35.60
2019-03-24T03:40:54.841Z,33.87
2019-03-24T03:43:27.793Z,36.70
2019-03-24T03:46:01.907Z,35.60
2019-03-24T03:48:35.825Z,37.77
2019-03-24T03:51:10.174Z,37.70
2019-03-24T03:53:43.272Z,35.50
2019-03-24T03:56:15.233Z,37.00
2019-03-24T03:58:47.166Z,35.80
2019-03-24T04:01:20.844Z,34.43
2019-03-24T04:03:53.962Z,36.10
2019-03-24T04:06:28.016Z,35.10
2019-03-24T04:08:59.978Z,36.20
2019-03-24T04:11:31.809Z,35.07
2019-03-24T04:14:05.899Z,35.83
2019-03-24T04:16:38.854Z,37.77
2019-03-24T04:19:13.593Z,38.67
2019-03-24T04:21:45.957Z,38.07
2019-03-24T04:24:17.797Z,35.93
2019-03-24T04:26:50.887Z,37.80
2019-03-24T04:29:24.048Z,36.70
2019-03-24T04:31:58.101Z,37.77
2019-03-24T04:34:31.155Z,37.83
2019-03-24T04:37:04.974Z,37.23
2019-03-24T04:39:39.160Z,35.10
2019-03-24T04:42:12.001Z,35.57
2019-03-24T04:44:46.192Z,35.50
2019-03-24T04:47:18.065Z,36.93
2019-03-24T04:49:50.786Z,33.57
2019-03-24T04:52:24.641Z,36.00
2019-03-24T04:54:57.084Z,36.17
2019-03-24T04:57:31.116Z,37.30
2019-03-24T05:00:04.138Z,36.37
2019-03-24T05:02:38.081Z,38.07
2019-03-24T05:05:12.309Z,37.07
2019-03-24T05:07:45.620Z,37.90
2019-03-24T05:10:28.037Z,39.50
2019-03-24T05:13:02.249Z,44.40
2019-03-24T05:15:35.416Z,46.80
2019-03-24T05:18:09.046Z,48.57
2019-03-24T05:20:42.473Z,44.53
2019-03-24T05:23:15.230Z,45.40
2019-03-24T05:25:49.320Z,43.83
2019-03-24T05:28:21.159Z,43.60
2019-03-24T05:30:53.711Z,43.47
2019-03-24T05:33:27.275Z,42.40
2019-03-24T05:35:59.372Z,40.13
2019-03-24T05:38:31.488Z,39.13
2019-03-24T05:41:04.732Z,38.60
2019-03-24T05:43:40.978Z,37.03
2019-03-24T05:46:14.824Z,35.30
2019-03-24T05:48:48.243Z,35.20
2019-03-24T05:51:21.546Z,36.77
2019-03-24T05:53:57.881Z,37.93
2019-03-24T05:56:29.822Z,40.07
2019-03-24T05:59:03.421Z,40.10
2019-03-24T06:01:36.408Z,42.10
2019-03-24T06:04:08.375Z,42.63
2019-03-24T06:06:41.554Z,42.13
2019-03-24T06:09:15.007Z,45.70
2019-03-24T06:11:51.280Z,47.83
2019-03-24T06:14:25.316Z,43.53
2019-03-24T06:16:57.464Z,44.27
2019-03-24T06:19:29.363Z,44.07
2019-03-24T06:22:02.478Z,44.97
2019-03-24T06:24:36.379Z,41.20
2019-03-24T06:27:09.586Z,44.03
2019-03-24T06:29:43.465Z,42.67
2019-03-24T06:32:15.431Z,41.60
2019-03-24T06:34:48.621Z,41.53
2019-03-24T06:37:21.437Z,41.90
2019-03-24T06:39:53.523Z,41.87
2019-03-24T06:42:25.381Z,38.53
2019-03-24T06:44:58.637Z,42.80
2019-03-24T06:47:32.512Z,45.23
2019-03-24T06:50:06.029Z,43.07
2019-03-24T06:52:39.533Z,43.40
2019-03-24T06:55:13.916Z,41.63
2019-03-24T06:57:46.662Z,39.90
2019-03-24T07:00:20.645Z,39.73
2019-03-24T07:02:53.522Z,38.00
2019-03-24T07:05:25.792Z,40.45
2019-03-24T07:08:00.550Z,42.07
2019-03-24T07:10:34.553Z,40.10
2019-03-24T07:13:08.608Z,44.47
2019-03-24T07:15:41.877Z,42.20
2019-03-24T07:18:15.350Z,45.40
2019-03-24T07:20:49.469Z,41.77
2019-03-24T07:23:22.572Z,45.60
2019-03-24T07:25:56.895Z,42.50
2019-03-24T07:28:29.758Z,43.37
2019-03-24T07:31:03.660Z,41.23
2019-03-24T07:33:36.814Z,41.40
2019-03-24T07:36:10.719Z,40.80
2019-03-24T07:38:43.767Z,43.70
2019-03-24T07:41:15.810Z,43.97
2019-03-24T07:43:48.727Z,42.40
2019-03-24T07:46:22.537Z,41.50
2019-03-24T07:48:55.732Z,42.20
2019-03-24T07:51:28.993Z,41.20
2019-03-24T07:54:04.242Z,39.00
2019-03-24T07:56:38.876Z,39.80
2019-03-24T07:59:10.746Z,42.23
2019-03-24T08:01:43.759Z,42.60
2019-03-24T08:04:19.974Z,41.67
2019-03-24T08:06:53.766Z,43.60
2019-03-24T08:09:27.837Z,41.20
2019-03-24T08:12:01.328Z,41.47
2019-03-24T08:14:34.949Z,42.60
2019-03-24T08:17:08.096Z,43.13
2019-03-24T08:19:41.927Z,40.90
2019-03-24T08:22:15.124Z,40.17
2019-03-24T08:24:46.995Z,39.90
2019-03-24T08:27:18.987Z,42.05
2019-03-24T08:29:52.943Z,40.90
2019-03-24T08:32:27.011Z,42.70
2019-03-24T08:35:00.945Z,42.60
2019-03-24T08:37:33.943Z,39.50
2019-03-24T08:40:10.039Z,38.87
2019-03-24T08:42:44.124Z,40.20
2019-03-24T08:45:26.418Z,39.53
2019-03-24T08:48:00.433Z,38.10
2019-03-24T08:50:34.015Z,38.67
2019-03-24T08:53:07.559Z,36.87
2019-03-24T08:55:42.071Z,37.17
2019-03-24T08:58:14.154Z,35.13
2019-03-24T09:00:48.328Z,36.33
2019-03-24T09:03:20.328Z,33.60
2019-03-24T09:05:55.111Z,35.03
2019-03-24T09:08:29.292Z,35.30
2019-03-24T09:11:10.284Z,32.83
2019-03-24T09:13:48.161Z,35.87
2019-03-24T09:16:26.552Z,35.23
2019-03-24T09:19:05.641Z,34.80
2019-03-24T09:21:41.587Z,38.35
2019-03-24T09:24:20.527Z,35.75
2019-03-24T09:26:54.318Z,33.27
2019-03-24T09:29:29.280Z,34.23
2019-03-24T09:32:06.460Z,34.47
2019-03-24T09:34:40.505Z,34.97
2019-03-24T09:37:13.651Z,33.00
2019-03-24T09:39:48.706Z,37.03
2019-03-24T09:42:21.481Z,40.50
2019-03-24T09:44:53.470Z,37.97
2019-03-24T09:47:26.647Z,37.63
2019-03-24T09:49:59.412Z,39.40
2019-03-24T09:52:33.777Z,36.93
2019-03-24T09:55:07.190Z,36.37
2019-03-24T09:57:39.440Z,36.87
2019-03-24T10:00:12.130Z,36.80
2019-03-24T10:02:45.231Z,36.10
2019-03-24T10:05:18.290Z,36.45
2019-03-24T10:07:50.585Z,39.27
2019-03-24T10:10:24.742Z,38.60
2019-03-24T10:13:01.081Z,37.40
2019-03-24T10:15:55.833Z,35.30
2019-03-24T10:18:34.253Z,31.70
2019-03-24T10:21:10.590Z,36.47
2019-03-24T10:23:43.366Z,38.20
2019-03-24T10:26:15.575Z,38.70
2019-03-24T10:28:50.168Z,38.00
2019-03-24T10:31:23.689Z,38.10
2019-03-24T10:33:57.712Z,39.20
2019-03-24T10:36:32.256Z,41.50
2019-03-24T10:39:08.614Z,38.80
2019-03-24T10:41:43.026Z,39.80
2019-03-24T10:44:15.275Z,39.00
2019-03-24T10:46:48.681Z,40.53
2019-03-24T10:49:25.021Z,38.00
2019-03-24T10:51:55.639Z,38.37
2019-03-24T10:54:35.246Z,38.83
2019-03-24T10:57:08.693Z,38.07
2019-03-24T10:59:43.769Z,38.83
2019-03-24T11:02:15.699Z,40.60
2019-03-24T11:04:49.642Z,41.00
2019-03-24T11:07:21.770Z,40.90
2019-03-24T11:09:53.659Z,41.20
2019-03-24T11:12:26.150Z,40.77
2019-03-24T11:15:00.169Z,38.20
2019-03-24T11:17:33.667Z,41.77
2019-03-24T11:20:06.751Z,41.07
2019-03-24T11:22:39.731Z,39.88
2019-03-24T11:25:12.613Z,41.10
2019-03-24T11:27:47.995Z,41.83
2019-03-24T11:30:25.104Z,41.00
2019-03-24T11:32:58.775Z,42.30
2019-03-24T11:35:31.006Z,43.13
2019-03-24T11:38:05.250Z,42.27
2019-03-24T11:40:48.368Z,40.70
2019-03-24T11:43:27.771Z,43.90
2019-03-24T11:46:02.657Z,40.47
2019-03-24T11:48:36.067Z,42.37
2019-03-24T11:51:10.058Z,43.57
2019-03-24T11:53:44.072Z,42.00
2019-03-24T11:56:18.181Z,44.17
2019-03-24T11:58:51.266Z,42.47
2019-03-24T12:01:26.303Z,44.10
2019-03-24T12:04:01.042Z,41.07
2019-03-24T12:06:36.359Z,42.63
2019-03-24T12:09:13.678Z,42.78
2019-03-24T12:11:48.161Z,45.60
2019-03-24T12:14:30.686Z,41.67
2019-03-24T12:17:07.907Z,44.40
2019-03-24T12:19:42.196Z,43.13
2019-03-24T12:22:15.307Z,43.27
2019-03-24T12:24:48.274Z,43.27
2019-03-24T12:27:21.199Z,45.40
2019-03-24T12:29:55.186Z,44.83
2019-03-24T12:32:36.717Z,45.20
2019-03-24T12:35:14.172Z,42.10
2019-03-24T12:37:47.247Z,42.97
2019-03-24T12:40:21.302Z,43.57
2019-03-24T12:42:55.033Z,42.83
2019-03-24T12:45:28.330Z,46.30
2019-03-24T12:48:01.475Z,42.10
2019-03-24T12:50:37.559Z,45.60
2019-03-24T12:53:16.540Z,44.15
2019-03-24T12:55:52.649Z,44.63
2019-03-24T12:58:37.191Z,45.30
2019-03-24T13:01:11.908Z,42.30
2019-03-24T13:03:46.219Z,47.27
2019-03-24T13:06:19.303Z,44.80
2019-03-24T13:08:53.683Z,42.07
2019-03-24T13:11:28.345Z,43.47
2019-03-24T13:14:04.185Z,43.17
2019-03-24T13:16:38.470Z,43.13
2019-03-24T13:19:19.397Z,42.40
2019-03-24T13:21:55.372Z,41.57
2019-03-24T13:24:28.859Z,37.83
2019-03-24T13:27:04.994Z,41.20
2019-03-24T13:29:41.864Z,41.30
2019-03-24T13:32:15.789Z,43.27
2019-03-24T13:34:49.528Z,41.10
2019-03-24T13:37:22.413Z,41.97
2019-03-24T13:39:56.337Z,40.20
2019-03-24T13:42:30.385Z,37.90
2019-03-24T13:45:03.269Z,39.43
2019-03-24T13:47:37.420Z,39.93
2019-03-24T13:50:10.341Z,41.50
2019-03-24T13:52:47.488Z,41.13
2019-03-24T13:55:22.943Z,40.73
2019-03-24T13:58:01.389Z,41.50
2019-03-24T14:00:34.332Z,42.00
2019-03-24T14:03:11.085Z,40.30
2019-03-24T14:05:43.160Z,40.40
2019-03-24T14:08:18.711Z,41.07
2019-03-24T14:10:52.620Z,38.57
2019-03-24T14:13:26.734Z,42.57
2019-03-24T14:16:03.377Z,40.80
2019-03-24T14:18:35.660Z,43.90
2019-03-24T14:21:08.903Z,43.53
2019-03-24T14:23:43.000Z,41.83
2019-03-24T14:26:20.767Z,47.00
2019-03-24T14:28:55.021Z,40.53
2019-03-24T14:31:29.680Z,44.38
2019-03-24T14:34:03.759Z,43.33
2019-03-24T14:36:37.898Z,43.97
2019-03-24T14:39:10.832Z,43.27
2019-03-24T14:41:44.922Z,42.17
2019-03-24T14:44:17.850Z,40.87
2019-03-24T14:46:50.588Z,42.73
2019-03-24T14:49:24.737Z,44.35
2019-03-24T14:52:00.050Z,44.40
2019-03-24T14:54:36.212Z,46.63
2019-03-24T14:57:08.910Z,42.97
2019-03-24T14:59:41.898Z,46.50
2019-03-24T15:02:15.937Z,41.63
2019-03-24T15:04:48.714Z,43.10
2019-03-24T15:07:24.318Z,46.40
2019-03-24T15:10:00.023Z,41.57
2019-03-24T15:12:32.069Z,41.73
2019-03-24T15:15:07.775Z,42.75
2019-03-24T15:17:39.756Z,39.00
2019-03-24T15:20:14.029Z,37.90
2019-03-24T15:22:49.965Z,42.80
2019-03-24T15:25:24.997Z,40.60
2019-03-24T15:27:57.908Z,40.03
2019-03-24T15:30:30.834Z,37.73
2019-03-24T15:33:04.912Z,37.73
2019-03-24T15:35:38.036Z,37.35
2019-03-24T15:38:11.867Z,36.30
2019-03-24T15:40:45.523Z,36.83
2019-03-24T15:43:19.198Z,37.13
2019-03-24T15:45:53.026Z,37.50
2019-03-24T15:48:25.994Z,36.60
2019-03-24T15:51:01.810Z,38.77
2019-03-24T15:53:36.024Z,39.50
2019-03-24T15:56:10.153Z,40.60
2019-03-24T15:58:47.166Z,38.87
2019-03-24T16:01:19.298Z,39.33
2019-03-24T16:03:54.162Z,40.87
2019-03-24T16:06:26.998Z,38.57
2019-03-24T16:09:01.076Z,40.50
2019-03-24T16:11:34.169Z,42.10
2019-03-24T16:14:08.088Z,39.00
2019-03-24T16:16:40.953Z,40.80
2019-03-24T16:19:15.024Z,40.17
2019-03-24T16:21:49.169Z,39.80
2019-03-24T16:24:22.224Z,40.60
2019-03-24T16:26:55.017Z,41.33
2019-03-24T16:29:27.530Z,40.90
2019-03-24T16:32:00.179Z,40.30
2019-03-24T16:34:34.654Z,39.60
2019-03-24T16:37:07.283Z,41.43
2019-03-24T16:39:41.132Z,39.50
2019-03-24T16:42:14.151Z,40.23
2019-03-24T16:44:48.582Z,40.10
2019-03-24T16:47:26.954Z,41.65
2019-03-24T16:50:10.230Z,40.50
2019-03-24T16:52:57.504Z,41.67
2019-03-24T16:55:34.053Z,41.87
2019-03-24T16:58:06.250Z,42.10
2019-03-24T17:00:39.128Z,40.30
2019-03-24T17:03:15.655Z,42.43
2019-03-24T17:05:50.231Z,41.13
2019-03-24T17:08:23.328Z,44.00
2019-03-24T17:10:58.272Z,50.60
2019-03-24T17:13:30.315Z,44.00
2019-03-24T17:16:04.192Z,42.83
2019-03-24T17:18:37.295Z,41.83
2019-03-24T17:21:11.329Z,42.57
2019-03-24T17:23:45.317Z,41.07
2019-03-24T17:26:19.270Z,42.07
2019-03-24T17:28:52.939Z,46.80
2019-03-24T17:31:25.420Z,46.48
2019-03-24T17:33:59.577Z,45.73
2019-03-24T17:36:33.638Z,42.03
2019-03-24T17:39:07.685Z,45.07
2019-03-24T17:41:40.606Z,46.53
2019-03-24T17:44:13.403Z,47.63
2019-03-24T17:46:46.422Z,45.23
2019-03-24T17:49:19.508Z,46.07
2019-03-24T17:52:00.389Z,48.87
2019-03-24T17:54:25.455Z,48.27
2019-03-24T17:56:58.619Z,49.10
2019-03-24T17:59:32.627Z,48.87
2019-03-24T18:02:13.886Z,49.00
2019-03-24T18:04:39.469Z,50.73
2019-03-24T18:07:14.986Z,51.97
2019-03-24T18:09:49.545Z,49.00
2019-03-24T18:12:22.019Z,50.73
2019-03-24T18:14:54.471Z,49.60
2019-03-24T18:17:27.629Z,49.60
2019-03-24T18:20:01.458Z,48.60
2019-03-24T18:22:33.708Z,61.13
2019-03-24T18:25:06.667Z,83.50
2019-03-24T18:27:39.417Z,50.57
2019-03-24T18:30:13.229Z,50.73
2019-03-24T18:32:46.530Z,50.17
2019-03-24T18:35:19.647Z,48.85
2019-03-24T18:37:55.160Z,46.27
2019-03-24T18:40:27.436Z,45.33
2019-03-24T18:43:01.717Z,44.30
2019-03-24T18:45:36.520Z,44.67
2019-03-24T18:48:08.846Z,42.53
2019-03-24T18:50:43.770Z,46.37
2019-03-24T18:53:15.985Z,45.97
2019-03-24T18:55:49.024Z,51.45
2019-03-24T18:58:22.791Z,49.47
2019-03-24T19:00:55.886Z,49.63
2019-03-24T19:03:27.999Z,48.10
2019-03-24T19:06:00.975Z,47.03
2019-03-24T19:08:37.304Z,50.23
2019-03-24T19:11:10.010Z,50.80
2019-03-24T19:13:42.979Z,49.50
2019-03-24T19:16:16.020Z,48.60
2019-03-24T19:18:49.782Z,51.63
2019-03-24T19:21:23.925Z,51.33
2019-03-24T19:23:57.910Z,52.97
2019-03-24T19:26:30.836Z,49.30
2019-03-24T19:29:02.823Z,48.63
2019-03-24T19:31:35.550Z,49.10
2019-03-24T19:34:08.934Z,49.23
2019-03-24T19:36:44.312Z,49.30
2019-03-24T19:39:16.233Z,50.30
2019-03-24T19:41:49.969Z,50.63
2019-03-24T19:44:23.211Z,50.50
2019-03-24T19:46:57.530Z,51.90
2019-03-24T19:49:31.180Z,52.37
2019-03-24T19:52:05.074Z,52.40
2019-03-24T19:54:38.627Z,51.30
2019-03-24T19:57:11.108Z,49.37
2019-03-24T19:59:46.662Z,48.80
2019-03-24T20:02:20.163Z,47.50
2019-03-24T20:04:55.222Z,48.80
2019-03-24T20:07:28.135Z,51.17
2019-03-24T20:10:02.118Z,49.47
2019-03-24T20:12:37.775Z,51.10
2019-03-24T20:15:10.381Z,50.27
2019-03-24T20:17:43.179Z,49.53
2019-03-24T20:20:16.394Z,52.27
2019-03-24T20:22:56.285Z,55.13
2019-03-24T20:25:27.318Z,53.73
2019-03-24T20:27:59.300Z,53.73
2019-03-24T20:30:31.852Z,53.30
2019-03-24T20:33:04.283Z,51.67
2019-03-24T20:35:38.236Z,52.77
2019-03-24T20:38:13.239Z,49.47
2019-03-24T20:40:46.326Z,55.40
2019-03-24T20:43:19.320Z,50.60
2019-03-24T20:45:52.140Z,54.43
2019-03-24T20:48:25.326Z,53.60
2019-03-24T20:50:57.146Z,59.30
2019-03-24T20:53:30.364Z,59.48
2019-03-24T20:56:03.158Z,57.60
2019-03-24T20:58:36.363Z,59.80
2019-03-24T21:01:10.084Z,55.47
2019-03-24T21:03:42.393Z,56.20
2019-03-24T21:06:16.441Z,57.57
2019-03-24T21:08:49.846Z,56.57
2019-03-24T21:11:22.370Z,57.70
2019-03-24T21:13:55.046Z,55.50
2019-03-24T21:16:29.334Z,56.20
2019-03-24T21:19:03.456Z,55.70
2019-03-24T21:21:36.627Z,54.30
2019-03-24T21:24:10.335Z,56.87
2019-03-24T21:26:45.096Z,57.80
2019-03-24T21:29:16.933Z,57.03
2019-03-24T21:31:49.490Z,56.87
2019-03-24T21:34:22.195Z,52.97
2019-03-24T21:36:55.470Z,59.70
2019-03-24T21:39:29.377Z,57.07
2019-03-24T21:42:02.400Z,56.07
2019-03-24T21:44:38.449Z,57.30
2019-03-24T21:47:10.516Z,57.67
2019-03-24T21:49:44.067Z,55.40
2019-03-24T21:52:16.311Z,57.90
2019-03-24T21:54:50.528Z,59.27
2019-03-24T21:57:22.456Z,57.38
2019-03-24T21:59:55.271Z,60.23
2019-03-24T22:02:28.598Z,57.30
2019-03-24T22:05:01.738Z,54.20
2019-03-24T22:07:35.696Z,54.15
2019-03-24T22:10:11.248Z,61.03
2019-03-24T22:12:43.648Z,54.30
2019-03-24T22:15:16.353Z,55.63
2019-03-24T22:17:49.572Z,55.97
2019-03-24T22:20:23.647Z,56.53
2019-03-24T22:22:56.858Z,52.90
2019-03-24T22:25:30.650Z,56.90
2019-03-24T22:28:03.884Z,55.63
2019-03-24T22:30:37.640Z,56.17
2019-03-24T22:33:10.557Z,57.40
2019-03-24T22:35:42.780Z,56.63
2019-03-24T22:38:17.832Z,56.43
2019-03-24T22:40:51.597Z,58.37
2019-03-24T22:43:26.702Z,58.40
2019-03-24T22:45:58.877Z,60.30
2019-03-24T22:48:32.794Z,60.90
2019-03-24T22:51:06.806Z,62.17
2019-03-24T22:53:39.818Z,61.93
2019-03-24T22:56:13.892Z,61.50
2019-03-24T22:58:47.875Z,62.50
2019-03-24T23:01:21.460Z,63.47
2019-03-24T23:03:53.951Z,62.60
2019-03-24T23:06:26.840Z,64.60
2019-03-24T23:09:00.800Z,63.30
2019-03-24T23:11:32.809Z,61.60
2019-03-24T23:14:05.856Z,62.27
2019-03-24T23:16:37.999Z,61.00
2019-03-24T23:19:11.030Z,60.20
2019-03-24T23:21:44.990Z,61.00
2019-03-24T23:24:16.882Z,59.80
2019-03-24T23:26:50.894Z,59.57
2019-03-24T23:29:22.900Z,59.30
2019-03-24T23:31:56.223Z,60.30
2019-03-24T23:34:28.912Z,60.47
2019-03-24T23:37:02.850Z,61.23
2019-03-24T23:39:35.196Z,60.20
2019-03-24T23:42:07.215Z,59.53
2019-03-24T23:44:42.042Z,60.60
2019-03-24T23:47:14.883Z,63.60
2019-03-24T23:49:48.040Z,63.17
2019-03-24T23:52:20.081Z,62.00
2019-03-24T23:54:54.330Z,61.43
2019-03-24T23:57:29.243Z,64.90
